Time;durP1;ratioP1;P1;durP2;ratioP2;P2;SDS_P1;SDS_P2;PMS_P1;PMS_P2;Temp;Humidity;BMP_temperature;BMP_pressure;BME280_temperature;BME280_humidity;BME280_pressure;Samples;Min_cycle;Max_cycle;Signal;HPM_P1;HPM_P2
2022/07/19 00:00:42;;;;;;;;;;;;;;;21.81;46.51;100167.59;1088089;54;19926;-79
2022/07/19 00:01:43;;;;;;;;;;;;;;;21.83;46.66;100170.09;1089648;46;19953;-80
2022/07/19 00:02:47;;;;;;;;;;;;;;;21.79;47.28;100169.72;1088202;54;19946;-79
2022/07/19 00:03:48;;;;;;;;;;;;;;;21.81;47.00;100172.22;1088664;46;19943;-77
2022/07/19 00:04:52;;;;;;;;;;;;;;;21.88;46.71;100164.88;1086372;54;19954;-78
2022/07/19 00:05:53;;;;;;;;;;;;;;;21.80;47.26;100171.38;1087088;54;19938;-79
2022/07/19 00:07:05;;;;;;;;;;;;;;;21.79;47.85;100169.72;1087371;54;20043;-80
2022/07/19 00:08:06;;;;;;;;;;;;;;;21.81;47.68;100167.59;1085082;54;19943;-80
2022/07/19 00:09:11;;;;;;;;;;;;;;;21.78;48.12;100168.03;1084087;54;20034;-79
2022/07/19 00:10:16;;;;;;;;;;;;;;;21.73;48.91;100172.44;1084274;54;19951;-80
2022/07/19 00:11:17;;;;;;;;;;;;;;;21.66;49.00;100173.31;1084138;54;19946;-79
2022/07/19 00:12:21;;;;;;;;;;;;;;;21.66;48.70;100167.88;1084077;54;19947;-80
2022/07/19 00:13:22;;;;;;;;;;;;;;;21.63;48.36;100175.63;1084030;39;20387;-79
2022/07/19 00:14:28;;;;;;;;;;;;;;;21.51;47.97;100178.97;1083967;54;19946;-78
2022/07/19 00:15:29;;;;;;;;;;;;;;;21.50;47.76;100173.78;1083876;54;19954;-78
2022/07/19 00:16:33;;;;;;;;;;;;;;;21.49;47.45;100177.53;1083764;54;19943;-79
2022/07/19 00:17:34;;;;;;;;;;;;;;;21.49;47.30;100170.19;1084135;39;20348;-80
2022/07/19 00:18:38;;;;;;;;;;;;;;;21.46;47.22;100175.22;1083777;54;19974;-80
2022/07/19 00:46:00;;;;;;;;;;;;;;;22.04;45.45;100173.56;1087040;46;20093;-79
2022/07/19 00:47:05;;;;;;;;;;;;;;;22.11;45.37;100177.94;1085144;54;19938;-77
2022/07/19 00:48:06;;;;;;;;;;;;;;;21.97;45.85;100166.28;1084517;54;19946;-77
2022/07/19 00:49:11;;;;;;;;;;;;;;;21.80;46.40;100181.44;1084934;47;20528;-77
2022/07/19 00:50:15;;;;;;;;;;;;;;;21.69;46.68;100177.50;1084917;46;20177;-78
2022/07/19 00:51:19;;;;;;;;;;;;;;;21.58;47.22;100179.00;1084651;54;20061;-78
2022/07/19 00:52:22;;;;;;;;;;;;;;;21.57;47.44;100176.47;1084288;47;19981;-78
2022/07/19 00:53:26;;;;;;;;;;;;;;;21.52;47.74;100177.13;1083429;54;19947;-77
2022/07/19 00:54:27;;;;;;;;;;;;;;;21.51;47.72;100178.16;1083290;54;19939;-77
2022/07/19 00:55:33;;;;;;;;;;;;;;;21.49;47.97;100174.81;1082972;54;19968;-77
2022/07/19 00:56:34;;;;;;;;;;;;;;;21.46;48.05;100177.94;1083094;54;19939;-78
2022/07/19 00:57:39;;;;;;;;;;;;;;;21.43;48.25;100176.50;1083141;54;19939;-77
2022/07/19 00:58:41;;;;;;;;;;;;;;;21.41;48.36;100177.78;1082779;54;19950;-78
2022/07/19 00:59:47;;;;;;;;;;;;;;;21.39;48.72;100179.84;1082714;54;19951;-77
2022/07/19 01:00:48;;;;;;;;;;;;;;;21.41;48.90;100166.91;1082620;54;19969;-78
2022/07/19 01:01:55;;;;;;;;;;;;;;;21.38;48.88;100172.75;1083018;54;19938;-78
2022/07/19 01:02:56;;;;;;;;;;;;;;;21.35;48.75;100174.84;1082983;54;19966;-79
2022/07/19 01:04:00;;;;;;;;;;;;;;;21.31;49.17;100179.03;1083153;54;20037;-78
2022/07/19 01:05:02;;;;;;;;;;;;;;;21.27;49.40;100169.63;1083044;54;19946;-78
2022/07/19 01:06:07;;;;;;;;;;;;;;;21.21;49.32;100175.94;1083116;54;19973;-78
2022/07/19 01:07:08;;;;;;;;;;;;;;;21.14;49.93;100183.25;1082960;54;19989;-77
2022/07/19 01:08:12;;;;;;;;;;;;;;;21.09;50.25;100180.31;1083146;54;19946;-77
2022/07/19 01:09:13;;;;;;;;;;;;;;;21.08;50.12;100184.09;1083484;39;20681;-78
2022/07/19 01:10:17;;;;;;;;;;;;;;;21.15;49.24;100176.78;1083170;54;19954;-77
2022/07/19 01:11:19;;;;;;;;;;;;;;;21.22;48.79;100179.47;1082975;54;19970;-78
2022/07/19 01:12:23;;;;;;;;;;;;;;;21.28;48.58;100178.63;1083081;54;20041;-77
2022/07/19 01:13:24;;;;;;;;;;;;;;;21.19;48.22;100181.59;1083086;54;19946;-77
2022/07/19 01:14:28;;;;;;;;;;;;;;;21.09;48.74;100180.31;1083174;54;19969;-77
2022/07/19 01:15:29;;;;;;;;;;;;;;;20.99;49.44;100184.31;1082930;54;19947;-77
2022/07/19 01:16:32;;;;;;;;;;;;;;;20.89;49.90;100183.91;1082991;39;20356;-77
2022/07/19 01:17:36;;;;;;;;;;;;;;;20.87;50.15;100183.28;1082637;54;20445;-78
2022/07/19 01:18:40;;;;;;;;;;;;;;;20.85;50.54;100183.47;1082588;54;19970;-79
2022/07/19 01:19:41;;;;;;;;;;;;;;;20.82;50.65;100183.91;1083040;54;19954;-77
2022/07/19 01:20:45;;;;;;;;;;;;;;;20.84;50.81;100189.97;1083073;54;19943;-79
2022/07/19 01:21:49;;;;;;;;;;;;;;;20.78;50.80;100184.53;1083077;54;20033;-77
2022/07/19 01:22:52;;;;;;;;;;;;;;;20.80;50.89;100182.44;1083712;39;20333;-79
2022/07/19 01:23:53;;;;;;;;;;;;;;;20.80;51.22;100185.16;1083542;39;20416;-78
2022/07/19 01:24:57;;;;;;;;;;;;;;;20.80;51.00;100187.88;1083174;54;19943;-78
2022/07/19 01:27:05;;;;;;;;;;;;;;;20.71;51.48;100179.91;1087143;54;19974;-73
2022/07/19 01:28:07;;;;;;;;;;;;;;;20.73;51.80;100172.41;1087452;54;19935;-74
2022/07/19 01:29:10;;;;;;;;;;;;;;;20.77;51.58;100178.25;1088966;39;20399;-75
2022/07/19 01:30:13;;;;;;;;;;;;;;;20.83;51.70;100177.41;1087593;54;19946;-75
2022/07/19 01:31:17;;;;;;;;;;;;;;;20.86;51.50;100177.00;1087070;54;19957;-73
2022/07/19 01:32:18;;;;;;;;;;;;;;;20.95;51.14;100179.50;1086568;54;19947;-75
2022/07/19 01:33:21;;;;;;;;;;;;;;;21.01;50.98;100173.25;1085876;54;20429;-75
2022/07/19 01:34:22;;;;;;;;;;;;;;;21.03;51.13;100165.69;1086342;54;19958;-74
2022/07/19 01:35:26;;;;;;;;;;;;;;;21.07;50.92;100172.41;1086581;54;19957;-75
2022/07/19 01:36:30;;;;;;;;;;;;;;;21.15;50.27;100174.88;1087700;54;19942;-75
2022/07/19 01:37:34;;;;;;;;;;;;;;;21.20;50.19;100174.25;1088037;54;19943;-75
2022/07/19 01:38:37;;;;;;;;;;;;;;;21.26;49.75;100165.25;1088089;54;19947;-75
2022/07/19 01:39:39;;;;;;;;;;;;;;;21.31;49.83;100168.19;1088038;54;19942;-75
2022/07/19 01:40:42;;;;;;;;;;;;;;;21.34;49.93;100173.19;1088103;54;19989;-75
2022/07/19 01:41:44;;;;;;;;;;;;;;;21.15;50.97;100179.50;1088038;54;19942;-75
2022/07/19 01:42:48;;;;;;;;;;;;;;;20.96;51.70;100178.47;1089323;46;20597;-76
2022/07/19 01:43:49;;;;;;;;;;;;;;;20.88;52.35;100179.50;1087883;54;19942;-76
2022/07/19 01:44:53;;;;;;;;;;;;;;;20.83;52.72;100182.84;1088014;54;19943;-75
2022/07/19 01:45:54;;;;;;;;;;;;;;;20.74;52.96;100181.38;1087848;54;19949;-74
2022/07/19 01:46:58;;;;;;;;;;;;;;;20.69;53.30;100187.41;1087784;54;19949;-77
2022/07/19 01:48:00;;;;;;;;;;;;;;;20.67;53.24;100186.81;1087702;54;20452;-75
2022/07/19 01:49:03;;;;;;;;;;;;;;;20.63;53.76;100188.25;1087607;54;19989;-75
2022/07/19 01:50:05;;;;;;;;;;;;;;;20.60;53.87;100193.28;1087465;54;19951;-75
2022/07/19 01:51:09;;;;;;;;;;;;;;;20.58;53.54;100185.34;1086890;54;20022;-75
2022/07/19 01:52:10;;;;;;;;;;;;;;;20.58;54.01;100190.78;1086975;54;19957;-75
2022/07/19 01:53:16;;;;;;;;;;;;;;;20.50;54.21;100183.66;1086785;54;19958;-75
2022/07/19 01:54:18;;;;;;;;;;;;;;;20.44;54.14;100189.06;1086692;54;20692;-74
2022/07/19 01:55:22;;;;;;;;;;;;;;;20.35;54.64;100191.97;1086761;54;19939;-76
2022/07/19 01:56:23;;;;;;;;;;;;;;;20.34;54.35;100189.47;1087054;54;19950;-74
2022/07/19 01:57:28;;;;;;;;;;;;;;;20.29;54.18;100183.81;1087471;54;19957;-74
2022/07/19 01:58:29;;;;;;;;;;;;;;;20.21;54.49;100185.69;1087035;54;20488;-75
2022/07/19 01:59:33;;;;;;;;;;;;;;;20.20;54.74;100191.31;1087811;39;20395;-75
2022/07/19 02:00:34;;;;;;;;;;;;;;;20.18;54.79;100190.69;1087129;54;19958;-74
2022/07/19 02:01:38;;;;;;;;;;;;;;;20.17;54.58;100186.28;1087691;54;19927;-77
2022/07/19 02:02:39;;;;;;;;;;;;;;;20.08;54.92;100188.34;1087542;54;19946;-74
2022/07/19 02:03:43;;;;;;;;;;;;;;;19.99;55.21;100190.41;1087682;54;20471;-75
2022/07/19 02:04:44;;;;;;;;;;;;;;;19.98;55.23;100188.75;1087324;54;19946;-74
2022/07/19 02:05:47;;;;;;;;;;;;;;;19.90;54.93;100188.94;1087558;54;19946;-73
2022/07/19 02:06:49;;;;;;;;;;;;;;;19.88;54.58;100186.44;1087708;54;19947;-75
2022/07/19 02:07:52;;;;;;;;;;;;;;;19.93;54.26;100183.09;1087484;54;19949;-77
2022/07/19 02:08:56;;;;;;;;;;;;;;;19.95;53.81;100181.00;1087369;54;19939;-77
2022/07/19 02:10:00;;;;;;;;;;;;;;;20.05;53.38;100181.47;1086947;54;19946;-73
2022/07/19 02:11:34;;;;;;;;;;;;;;;20.07;53.26;100182.09;1087069;54;19950;-75
2022/07/19 02:12:25;;;;;;;;;;;;;;;20.12;53.11;100173.34;1087255;54;19947;-75
2022/07/19 02:13:26;;;;;;;;;;;;;;;20.14;52.56;100178.56;1089426;39;20411;-75
2022/07/19 02:14:30;;;;;;;;;;;;;;;20.12;52.58;100176.06;1087790;54;20441;-76
2022/07/19 02:15:31;;;;;;;;;;;;;;;20.08;53.12;100175.63;1087603;54;19954;-77
2022/07/19 02:16:35;;;;;;;;;;;;;;;20.07;52.77;100184.00;1087091;54;19950;-76
2022/07/19 02:17:36;;;;;;;;;;;;;;;20.08;52.91;100175.63;1087134;54;19950;-78
2022/07/19 02:18:40;;;;;;;;;;;;;;;20.03;53.26;100183.53;1087061;54;20002;-75
2022/07/19 02:19:41;;;;;;;;;;;;;;;19.99;53.56;100179.56;1087197;54;20199;-75
2022/07/19 02:20:45;;;;;;;;;;;;;;;19.92;53.69;100178.72;1087321;54;20019;-76
2022/07/19 02:21:46;;;;;;;;;;;;;;;19.86;54.01;100174.09;1086878;54;19957;-75
2022/07/19 02:22:50;;;;;;;;;;;;;;;19.74;53.60;100177.34;1087174;54;19989;-75
2022/07/19 02:23:51;;;;;;;;;;;;;;;19.71;53.64;100180.47;1087048;54;20531;-75
2022/07/19 02:24:57;;;;;;;;;;;;;;;19.71;53.57;100175.06;1086579;54;20039;-78
2022/07/19 02:25:59;;;;;;;;;;;;;;;19.71;53.55;100169.63;1086786;54;19957;-77
2022/07/19 02:27:02;;;;;;;;;;;;;;;19.63;53.99;100177.94;1086224;47;19939;-75
2022/07/19 02:28:03;;;;;;;;;;;;;;;19.59;53.98;100169.38;1086012;54;19946;-77
2022/07/19 02:29:08;;;;;;;;;;;;;;;19.56;54.04;100174.34;1086035;54;19943;-78
2022/07/19 02:30:11;;;;;;;;;;;;;;;19.56;54.35;100171.63;1086665;54;19957;-77
2022/07/19 02:31:14;;;;;;;;;;;;;;;19.51;54.45;100168.69;1086665;54;19947;-79
2022/07/19 02:32:16;;;;;;;;;;;;;;;19.45;55.32;100168.47;1086572;54;20471;-77
2022/07/19 02:33:19;;;;;;;;;;;;;;;19.45;55.01;100165.75;1087061;54;19946;-77
2022/07/19 02:34:21;;;;;;;;;;;;;;;19.40;55.30;100168.22;1087221;54;19945;-76
2022/07/19 02:35:25;;;;;;;;;;;;;;;19.45;55.08;100167.63;1087452;54;20437;-75
2022/07/19 02:36:26;;;;;;;;;;;;;;;19.42;55.28;100158.03;1090766;39;20334;-74
2022/07/19 02:37:30;;;;;;;;;;;;;;;19.43;55.24;100173.25;1086769;54;19951;-76
2022/07/19 02:38:31;;;;;;;;;;;;;;;19.40;54.52;100160.09;1085872;54;19946;-77
2022/07/19 02:39:35;;;;;;;;;;;;;;;19.45;54.46;100165.75;1086052;54;20058;-76
2022/07/19 02:40:41;;;;;;;;;;;;;;;19.43;54.70;100170.53;1085792;54;19973;-76
2022/07/19 02:41:42;;;;;;;;;;;;;;;19.39;54.47;100158.41;1085832;54;19953;-78
2022/07/19 02:42:46;;;;;;;;;;;;;;;19.40;54.76;100167.41;1086043;54;20401;-77
2022/07/19 02:43:47;;;;;;;;;;;;;;;19.44;54.86;100155.94;1086169;54;19952;-78
2022/07/19 02:44:50;;;;;;;;;;;;;;;19.45;54.71;100160.34;1086155;54;19954;-77
2022/07/19 02:45:52;;;;;;;;;;;;;;;19.49;54.79;100155.34;1086972;54;19978;-74
2022/07/19 02:46:55;;;;;;;;;;;;;;;19.53;54.66;100153.88;1087361;54;19949;-76
2022/07/19 02:47:56;;;;;;;;;;;;;;;19.61;54.66;100158.31;1087495;54;19946;-74
2022/07/19 02:49:00;;;;;;;;;;;;;;;19.67;54.24;100162.91;1090316;39;20438;-76
2022/07/19 02:50:01;;;;;;;;;;;;;;;19.68;54.41;100161.06;1087897;54;19930;-75
2022/07/19 02:51:05;;;;;;;;;;;;;;;19.67;54.22;100165.63;1091735;39;20467;-76
2022/07/19 02:52:06;;;;;;;;;;;;;;;19.69;54.56;100157.31;1092350;39;20419;-75
2022/07/19 02:53:10;;;;;;;;;;;;;;;19.65;54.16;100159.56;1087977;54;19962;-76
2022/07/19 02:54:11;;;;;;;;;;;;;;;19.59;54.33;100163.09;1087146;54;19946;-76
2022/07/19 02:55:15;;;;;;;;;;;;;;;19.56;54.60;100158.91;1086590;54;19999;-75
2022/07/19 02:56:19;;;;;;;;;;;;;;;19.50;54.70;100170.56;1087326;54;19943;-73
2022/07/19 02:57:23;;;;;;;;;;;;;;;19.40;54.91;100157.38;1087749;54;19951;-74
2022/07/19 02:58:24;;;;;;;;;;;;;;;19.28;55.27;100170.66;1088149;54;19942;-74
2022/07/19 02:59:28;;;;;;;;;;;;;;;19.31;55.13;100166.69;1090124;39;20570;-74
2022/07/19 03:00:29;;;;;;;;;;;;;;;19.24;56.37;100168.53;1087920;54;19946;-74
2022/07/19 03:01:33;;;;;;;;;;;;;;;19.16;57.50;100164.09;1087818;54;19950;-74
2022/07/19 03:02:37;;;;;;;;;;;;;;;19.10;57.71;100171.16;1088083;54;19954;-73
2022/07/19 03:03:44;;;;;;;;;;;;;;;19.03;57.32;100172.97;1087682;54;19939;-73
2022/07/19 03:04:48;;;;;;;;;;;;;;;19.10;57.12;100164.91;1087773;47;19957;-74
2022/07/19 03:05:49;;;;;;;;;;;;;;;19.10;57.27;100162.19;1087660;54;19949;-73
2022/07/19 03:06:52;;;;;;;;;;;;;;;19.10;56.80;100157.59;1087751;54;19943;-74
2022/07/19 03:07:54;;;;;;;;;;;;;;;19.17;56.52;100157.66;1088061;54;19927;-73
2022/07/19 03:08:57;;;;;;;;;;;;;;;19.22;56.31;100159.78;1090861;47;19994;-74
2022/07/19 03:10:01;;;;;;;;;;;;;;;19.29;56.38;100157.94;1087966;54;19950;-74
2022/07/19 03:11:02;;;;;;;;;;;;;;;19.37;55.89;100156.94;1087995;54;19943;-74
2022/07/19 03:12:09;;;;;;;;;;;;;;;19.45;55.36;100159.47;1092001;39;20384;-74
2022/07/19 03:13:10;;;;;;;;;;;;;;;19.34;56.14;100155.47;1087852;54;19927;-74
2022/07/19 03:14:14;;;;;;;;;;;;;;;19.30;55.88;100157.75;1088095;54;19962;-73
2022/07/19 03:15:15;;;;;;;;;;;;;;;19.38;55.33;100159.44;1087918;54;19949;-74
2022/07/19 03:16:18;;;;;;;;;;;;;;;19.46;55.08;100153.84;1088167;54;19950;-75
2022/07/19 03:17:20;;;;;;;;;;;;;;;19.54;55.18;100155.56;1089845;46;19946;-74
2022/07/19 03:18:23;;;;;;;;;;;;;;;19.60;54.64;100159.34;1088674;46;20006;-73
2022/07/19 03:19:26;;;;;;;;;;;;;;;19.67;54.48;100151.25;1088476;54;19943;-74
2022/07/19 03:20:30;;;;;;;;;;;;;;;19.70;54.36;100162.53;1088331;54;19942;-74
2022/07/19 03:21:33;;;;;;;;;;;;;;;19.76;54.00;100156.28;1088107;54;19951;-74
2022/07/19 03:22:36;;;;;;;;;;;;;;;19.81;53.77;100158.38;1088190;54;19949;-74
2022/07/19 03:23:38;;;;;;;;;;;;;;;19.85;53.84;100153.38;1087866;46;19969;-73
2022/07/19 03:24:41;;;;;;;;;;;;;;;19.85;53.66;100158.81;1087697;54;19950;-74
2022/07/19 03:25:42;;;;;;;;;;;;;;;19.86;53.80;100158.66;1088298;54;19934;-74
2022/07/19 03:26:46;;;;;;;;;;;;;;;19.88;53.71;100158.44;1088365;54;19939;-75
2022/07/19 03:27:50;;;;;;;;;;;;;;;19.90;53.43;100150.94;1088413;54;19949;-73
2022/07/19 03:28:54;;;;;;;;;;;;;;;19.91;53.88;100152.63;1089165;46;19998;-77
2022/07/19 03:29:55;;;;;;;;;;;;;;;19.91;53.63;100160.75;1087840;54;19954;-75
2022/07/19 03:30:59;;;;;;;;;;;;;;;19.92;53.59;100157.84;1087779;54;19942;-75
2022/07/19 03:32:00;;;;;;;;;;;;;;;19.91;54.09;100163.47;1088386;54;19966;-75
2022/07/19 03:33:03;;;;;;;;;;;;;;;19.81;54.44;100161.09;1088261;54;20015;-75
2022/07/19 03:34:05;;;;;;;;;;;;;;;19.75;54.70;100170.06;1088429;54;19949;-75
2022/07/19 03:35:09;;;;;;;;;;;;;;;19.72;54.45;100174.00;1088380;54;19981;-76
2022/07/19 03:36:13;;;;;;;;;;;;;;;19.70;54.31;100170.66;1088192;54;20041;-77
2022/07/19 03:37:14;;;;;;;;;;;;;;;19.70;53.86;100176.09;1088145;54;19958;-75
2022/07/19 03:38:18;;;;;;;;;;;;;;;19.72;53.48;100170.44;1088364;54;19946;-75
2022/07/19 03:39:19;;;;;;;;;;;;;;;19.70;53.48;100172.53;1088257;54;19926;-76
2022/07/19 03:40:23;;;;;;;;;;;;;;;19.70;53.41;100173.38;1087988;54;19942;-77
2022/07/19 03:41:24;;;;;;;;;;;;;;;19.64;53.23;100172.31;1087750;54;19946;-75
2022/07/19 03:42:28;;;;;;;;;;;;;;;19.58;52.84;100172.25;1087340;54;20353;-75
2022/07/19 03:43:34;;;;;;;;;;;;;;;19.47;53.17;100171.78;1087835;54;19950;-75
2022/07/19 03:44:35;;;;;;;;;;;;;;;19.43;53.15;100167.81;1087702;54;19943;-82
2022/07/19 03:45:40;;;;;;;;;;;;;;;19.47;52.95;100169.09;1088454;54;19947;-82
2022/07/19 03:46:41;;;;;;;;;;;;;;;19.52;52.64;100167.66;1088670;54;19923;-83
2022/07/19 03:48:47;;;;;;;;;;;;;;;19.56;52.25;100164.34;1088469;54;19935;-83
2022/07/19 03:49:48;;;;;;;;;;;;;;;19.53;51.92;100167.44;1088478;54;19949;-81
2022/07/19 03:51:00;;;;;;;;;;;;;;;19.45;52.41;100160.34;1088470;54;19931;-84
2022/07/19 03:52:13;;;;;;;;;;;;;;;19.48;52.13;100170.75;1088432;54;19994;-81
2022/07/19 03:53:17;;;;;;;;;;;;;;;19.52;51.98;100170.38;1088299;54;20002;-81
2022/07/19 03:54:18;;;;;;;;;;;;;;;19.58;51.67;100173.13;1088452;54;20562;-79
2022/07/19 03:55:22;;;;;;;;;;;;;;;19.60;51.65;100172.91;1088480;54;19946;-81
2022/07/19 03:56:23;;;;;;;;;;;;;;;19.63;51.67;100175.22;1088443;54;20000;-80
2022/07/19 03:57:27;;;;;;;;;;;;;;;19.65;51.58;100175.84;1090344;39;20549;-82
2022/07/19 03:58:33;;;;;;;;;;;;;;;19.65;51.57;100175.84;1088071;54;19949;-82
2022/07/19 03:59:35;;;;;;;;;;;;;;;19.65;51.67;100181.25;1088058;54;19949;-80
2022/07/19 04:00:39;;;;;;;;;;;;;;;19.64;51.80;100174.19;1088345;54;19942;-82
2022/07/19 04:01:42;;;;;;;;;;;;;;;19.60;52.20;100175.63;1088458;54;19943;-80
2022/07/19 04:02:43;;;;;;;;;;;;;;;19.63;51.87;100175.22;1088442;54;20539;-82
2022/07/19 04:03:47;;;;;;;;;;;;;;;19.62;51.73;100171.66;1088473;54;20668;-81
2022/07/19 04:04:48;;;;;;;;;;;;;;;19.63;51.74;100173.34;1088444;54;20609;-82
2022/07/19 04:05:52;;;;;;;;;;;;;;;19.64;52.03;100176.91;1088422;54;19949;-82
2022/07/19 04:06:53;;;;;;;;;;;;;;;19.68;51.51;100170.03;1088363;54;19927;-82
2022/07/19 04:07:57;;;;;;;;;;;;;;;19.72;51.44;100175.88;1088408;54;19950;-83
2022/07/19 04:08:58;;;;;;;;;;;;;;;19.73;51.59;100172.13;1088421;54;19946;-82
2022/07/19 04:10:02;;;;;;;;;;;;;;;19.74;51.75;100174.63;1088475;54;19930;-82
2022/07/19 04:11:03;;;;;;;;;;;;;;;19.75;51.62;100173.59;1089487;46;19923;-81
2022/07/19 04:12:07;;;;;;;;;;;;;;;19.79;51.59;100177.59;1088484;54;19994;-82
2022/07/19 04:13:08;;;;;;;;;;;;;;;19.80;51.30;100178.41;1088527;54;19938;-83
2022/07/19 04:14:15;;;;;;;;;;;;;;;19.76;51.84;100172.56;1090108;31;20671;-82
2022/07/19 04:15:16;;;;;;;;;;;;;;;19.74;51.51;100177.34;1088725;46;19943;-81
2022/07/19 04:16:21;;;;;;;;;;;;;;;19.73;51.96;100180.25;1087981;54;20653;-81
2022/07/19 04:17:23;;;;;;;;;;;;;;;19.73;51.63;100177.56;1088089;54;19942;-81
2022/07/19 04:18:27;;;;;;;;;;;;;;;19.67;52.20;100179.19;1088291;54;19955;-81
2022/07/19 04:19:28;;;;;;;;;;;;;;;19.58;52.14;100183.97;1088439;54;19942;-82
2022/07/19 04:20:32;;;;;;;;;;;;;;;19.53;52.07;100178.28;1088414;54;19934;-82
2022/07/19 04:21:33;;;;;;;;;;;;;;;19.56;52.14;100182.47;1088235;54;19943;-79
2022/07/19 04:22:37;;;;;;;;;;;;;;;19.53;52.08;100185.59;1088340;54;19942;-82
2022/07/19 04:23:38;;;;;;;;;;;;;;;19.50;52.08;100184.13;1088290;54;19935;-82
2022/07/19 04:24:42;;;;;;;;;;;;;;;19.50;52.03;100181.41;1088331;54;19943;-80
2022/07/19 04:25:45;;;;;;;;;;;;;;;19.42;52.12;100193.25;1088399;54;19965;-84
2022/07/19 04:26:47;;;;;;;;;;;;;;;19.42;51.92;100193.25;1088109;54;19943;-82
2022/07/19 04:27:51;;;;;;;;;;;;;;;19.44;52.19;100187.63;1088369;54;19934;-81
2022/07/19 04:28:52;;;;;;;;;;;;;;;19.45;51.86;100190.16;1088398;54;19923;-81
2022/07/19 04:29:58;;;;;;;;;;;;;;;19.48;51.75;100192.44;1088221;54;20014;-81
2022/07/19 04:30:59;;;;;;;;;;;;;;;19.49;51.72;100187.88;1088061;54;19942;-80
2022/07/19 04:32:03;;;;;;;;;;;;;;;19.52;51.88;100189.34;1087905;54;19945;-79
2022/07/19 04:33:04;;;;;;;;;;;;;;;19.53;51.79;100188.31;1087531;54;20591;-80
2022/07/19 04:34:09;;;;;;;;;;;;;;;19.52;51.56;100192.06;1087200;54;19943;-82
2022/07/19 04:35:10;;;;;;;;;;;;;;;19.54;51.50;100185.38;1087223;54;19953;-80
2022/07/19 04:36:14;;;;;;;;;;;;;;;19.52;52.02;100192.06;1087092;54;19946;-81
2022/07/19 04:37:15;;;;;;;;;;;;;;;19.51;52.01;100191.19;1087289;54;19951;-81
2022/07/19 04:38:19;;;;;;;;;;;;;;;19.51;52.20;100193.09;1087274;54;19943;-80
2022/07/19 04:39:20;;;;;;;;;;;;;;;19.54;51.76;100192.69;1087372;54;19947;-81
2022/07/19 04:40:24;;;;;;;;;;;;;;;19.54;52.15;100192.69;1087023;54;19954;-82
2022/07/19 04:41:25;;;;;;;;;;;;;;;19.46;52.47;100199.94;1086999;54;19958;-80
2022/07/19 04:42:29;;;;;;;;;;;;;;;19.45;52.01;100198.28;1086864;54;20444;-80
2022/07/19 04:43:30;;;;;;;;;;;;;;;19.48;52.04;100189.72;1087013;54;19946;-81
2022/07/19 04:44:33;;;;;;;;;;;;;;;19.49;52.22;100199.53;1087852;39;20726;-80
2022/07/19 04:45:41;;;;;;;;;;;;;;;19.54;51.69;100198.13;1087018;54;19970;-81
2022/07/19 04:46:42;;;;;;;;;;;;;;;19.57;51.99;100200.41;1088373;39;20443;-81
2022/07/19 04:47:46;;;;;;;;;;;;;;;19.61;51.63;100196.28;1087215;54;19947;-82
2022/07/19 04:48:47;;;;;;;;;;;;;;;19.64;51.43;100201.31;1086932;54;19947;-81
2022/07/19 04:49:51;;;;;;;;;;;;;;;19.67;51.32;100202.78;1086553;54;19947;-80
2022/07/19 04:50:52;;;;;;;;;;;;;;;19.70;51.50;100210.50;1087505;54;19954;-80
2022/07/19 04:51:56;;;;;;;;;;;;;;;19.69;51.59;100204.25;1087280;54;20464;-80
2022/07/19 04:52:57;;;;;;;;;;;;;;;19.69;51.26;100193.41;1087660;54;19938;-80
2022/07/19 04:54:01;;;;;;;;;;;;;;;19.70;51.09;100189.66;1090280;39;20356;-80
2022/07/19 04:55:02;;;;;;;;;;;;;;;19.71;51.32;100202.16;1087774;54;19946;-82
2022/07/19 04:56:06;;;;;;;;;;;;;;;19.70;51.24;100202.34;1087402;54;19954;-84
2022/07/19 04:57:07;;;;;;;;;;;;;;;19.71;51.17;100196.75;1087367;54;19949;-81
2022/07/19 04:58:11;;;;;;;;;;;;;;;19.72;51.36;100192.16;1087409;54;20010;-78
2022/07/19 04:59:12;;;;;;;;;;;;;;;19.71;51.30;100190.47;1087693;54;19946;-79
2022/07/19 05:00:16;;;;;;;;;;;;;;;19.72;50.95;100193.00;1087844;54;19942;-80
2022/07/19 05:01:20;;;;;;;;;;;;;;;19.72;51.03;100193.00;1087462;54;19953;-79
2022/07/19 05:02:24;;;;;;;;;;;;;;;19.75;51.10;100187.16;1087612;54;19942;-79
2022/07/19 05:03:25;;;;;;;;;;;;;;;19.78;50.80;100186.75;1087544;54;19950;-80
2022/07/19 05:04:30;;;;;;;;;;;;;;;19.83;50.74;100186.16;1089029;39;20682;-81
2022/07/19 05:05:31;;;;;;;;;;;;;;;19.85;50.77;100192.25;1087069;54;19950;-80
2022/07/19 05:06:35;;;;;;;;;;;;;;;19.88;50.62;100194.56;1086747;54;19982;-79
2022/07/19 05:07:36;;;;;;;;;;;;;;;19.93;50.84;100186.66;1086896;54;19950;-79
2022/07/19 05:08:40;;;;;;;;;;;;;;;19.94;50.58;100187.47;1088111;46;19946;-78
2022/07/19 05:09:41;;;;;;;;;;;;;;;19.83;50.80;100193.47;1087003;54;19954;-79
2022/07/19 05:10:44;;;;;;;;;;;;;;;19.80;50.88;100192.81;1087652;54;19950;-81
2022/07/19 05:11:46;;;;;;;;;;;;;;;19.90;50.58;100183.50;1087372;54;19954;-82
2022/07/19 05:12:49;;;;;;;;;;;;;;;19.87;50.87;100182.03;1087447;54;20463;-80
2022/07/19 05:13:50;;;;;;;;;;;;;;;19.79;51.31;100190.28;1087882;46;20670;-78
2022/07/19 05:14:54;;;;;;;;;;;;;;;19.72;51.77;100186.72;1087275;54;20496;-81
2022/07/19 05:15:55;;;;;;;;;;;;;;;19.73;51.39;100183.84;1087515;54;19974;-79
2022/07/19 05:17:01;;;;;;;;;;;;;;;19.77;51.07;100192.41;1089495;46;20002;-79
2022/07/19 05:18:03;;;;;;;;;;;;;;;19.84;50.94;100187.00;1086874;54;19973;-79
2022/07/19 05:19:09;;;;;;;;;;;;;;;19.87;51.23;100183.91;1087349;54;19939;-78
2022/07/19 05:20:10;;;;;;;;;;;;;;;19.92;50.79;100186.84;1088349;47;19950;-79
2022/07/19 05:21:14;;;;;;;;;;;;;;;19.93;50.99;100185.81;1087566;54;19939;-79
2022/07/19 05:22:15;;;;;;;;;;;;;;;19.98;50.62;100185.22;1087787;54;19942;-81
2022/07/19 05:23:19;;;;;;;;;;;;;;;20.05;50.73;100184.16;1087255;54;19958;-81
2022/07/19 05:24:20;;;;;;;;;;;;;;;20.10;50.58;100187.13;1087172;54;19943;-81
2022/07/19 05:25:25;;;;;;;;;;;;;;;20.15;50.32;100185.66;1087373;54;19938;-80
2022/07/19 05:26:26;;;;;;;;;;;;;;;20.17;50.46;100184.41;1088553;46;19946;-80
2022/07/19 05:27:30;;;;;;;;;;;;;;;20.25;50.26;100194.25;1087729;54;19954;-80
2022/07/19 05:28:31;;;;;;;;;;;;;;;20.32;49.89;100191.56;1087586;54;19946;-81
2022/07/19 05:29:35;;;;;;;;;;;;;;;20.33;49.86;100194.06;1087615;54;19947;-81
2022/07/19 05:30:36;;;;;;;;;;;;;;;20.38;49.83;100191.56;1087715;54;19953;-80
2022/07/19 05:31:39;;;;;;;;;;;;;;;20.41;49.96;100191.16;1090054;39;20387;-81
2022/07/19 05:32:43;;;;;;;;;;;;;;;20.40;49.70;100189.47;1088915;39;20400;-81
2022/07/19 05:33:47;;;;;;;;;;;;;;;20.41;49.70;100188.44;1088372;39;20411;-81
2022/07/19 05:34:48;;;;;;;;;;;;;;;20.42;49.65;100187.38;1088010;54;19950;-78
2022/07/19 05:35:52;;;;;;;;;;;;;;;20.44;49.78;100187.19;1087602;54;19951;-78
2022/07/19 05:36:53;;;;;;;;;;;;;;;20.49;49.54;100192.00;1087388;54;19947;-82
2022/07/19 05:37:57;;;;;;;;;;;;;;;20.48;49.99;100184.91;1087660;54;19946;-81
2022/07/19 05:38:58;;;;;;;;;;;;;;;20.53;49.71;100187.81;1087234;54;19974;-80
2022/07/19 05:40:01;;;;;;;;;;;;;;;20.58;49.66;100179.91;1088372;47;19943;-81
2022/07/19 05:41:03;;;;;;;;;;;;;;;20.60;49.23;100182.41;1087325;54;19957;-80
2022/07/19 05:42:06;;;;;;;;;;;;;;;20.52;49.63;100178.84;1086937;54;19946;-80
2022/07/19 05:43:08;;;;;;;;;;;;;;;20.39;49.92;100185.09;1087111;54;19950;-80
2022/07/19 05:44:11;;;;;;;;;;;;;;;20.47;49.79;100188.66;1087765;54;19958;-80
2022/07/19 05:45:13;;;;;;;;;;;;;;;20.42;49.82;100181.97;1087871;46;20469;-78
2022/07/19 05:46:16;;;;;;;;;;;;;;;20.46;49.89;100174.22;1089394;39;20652;-79
2022/07/19 05:47:18;;;;;;;;;;;;;;;20.51;49.70;100173.59;1086856;54;19947;-78
2022/07/19 05:48:24;;;;;;;;;;;;;;;20.59;49.27;100176.16;1087108;54;19994;-80
2022/07/19 05:49:25;;;;;;;;;;;;;;;20.64;49.06;100170.91;1086906;54;19954;-78
2022/07/19 05:50:29;;;;;;;;;;;;;;;20.68;48.90;100176.75;1086575;54;19942;-79
2022/07/19 05:51:30;;;;;;;;;;;;;;;20.73;48.99;100172.41;1087040;54;19950;-81